Terminal Aerodrome Forecast
Issued by NWS

Home | Current Version | Previous Version | Text Only | Print | Product List | Glossary On
Versions: 1 2 3 4 5 6 7 8 9 10 11 12 13 14 15 16 17 18 19 20 21
000
FTUS42 KTBW 191100
TAFLAL
TAF
KLAL 191120Z 1912/2012 VRB04KT P6SM FEW030 OVC200
     FM191400 06006KT P6SM VCSH SCT030 OVC150
     FM191600 05007KT 6SM SHRA VCTS BKN040CB BKN100 OVC150
      TEMPO 1916/1920 4SM SHRA BKN030
     FM200100 08005KT 6SM BR VCSH SCT020 BKN035 OVC100=

USA.gov is the U.S. government's official web portal to all federal, state and local government web resources and services.